Time;durP1;ratioP1;P1;durP2;ratioP2;P2;SDS_P1;SDS_P2;PMS_P1;PMS_P2;Temp;Humidity;BMP_temperature;BMP_pressure;BME280_temperature;BME280_humidity;BME280_pressure;Samples;Min_cycle;Max_cycle;Signal;HPM_P1;HPM_P2
2023/04/13 00:01:26;;;;;;;0.40;0.35;;;8.90;99.90;;;;;;4993141;28;20042;-72
2023/04/13 00:03:52;;;;;;;2.35;0.43;;;8.90;99.90;;;;;;4993607;28;20367;-72
2023/04/13 00:06:19;;;;;;;2.97;0.40;;;8.90;99.90;;;;;;4991880;28;20499;-72
2023/04/13 00:08:45;;;;;;;1.58;0.40;;;8.80;99.90;;;;;;4991577;28;20428;-72
2023/04/13 00:11:12;;;;;;;1.30;0.30;;;8.90;99.90;;;;;;4993340;28;20034;-72
2023/04/13 00:13:46;;;;;;;0.75;0.43;;;8.80;99.90;;;;;;4991500;28;20529;-72
2023/04/13 00:16:13;;;;;;;0.77;0.30;;;8.80;99.90;;;;;;4992062;28;20026;-72
2023/04/13 00:18:39;;;;;;;0.60;0.30;;;8.80;99.90;;;;;;4992680;28;20030;-72
2023/04/13 00:21:05;;;;;;;0.68;0.45;;;8.80;99.90;;;;;;4991966;28;20383;-73
2023/04/13 00:23:31;;;;;;;0.80;0.30;;;8.80;99.90;;;;;;4992531;28;20476;-72
2023/04/13 00:25:57;;;;;;;0.80;0.40;;;8.80;99.90;;;;;;4991889;28;20057;-72
2023/04/13 00:28:23;;;;;;;3.10;0.50;;;8.80;99.90;;;;;;4991307;28;20124;-72
2023/04/13 00:30:49;;;;;;;2.15;0.45;;;8.80;99.90;;;;;;4993078;28;20054;-72
2023/04/13 00:33:14;;;;;;;1.92;0.55;;;8.70;99.90;;;;;;4993154;28;20030;-73
2023/04/13 00:35:40;;;;;;;1.75;0.50;;;8.70;99.90;;;;;;5007592;28;20023;-73
2023/04/13 00:38:06;;;;;;;0.47;0.30;;;8.60;99.90;;;;;;4993112;28;20041;-72
2023/04/13 00:40:31;;;;;;;2.05;0.50;;;8.60;99.90;;;;;;4992334;28;20480;-73
2023/04/13 00:42:59;;;;;;;0.60;0.40;;;8.60;99.90;;;;;;4991549;28;20058;-73
2023/04/13 00:45:25;;;;;;;0.63;0.30;;;8.60;99.90;;;;;;4992400;28;20134;-72
2023/04/13 00:47:52;;;;;;;1.88;0.40;;;8.60;99.90;;;;;;4992682;28;20063;-72
2023/04/13 00:50:19;;;;;;;1.75;0.40;;;8.70;99.90;;;;;;4992906;28;20456;-73
2023/04/13 00:52:47;;;;;;;2.00;0.40;;;8.70;99.90;;;;;;5009630;28;20065;-72
2023/04/13 00:55:13;;;;;;;1.40;0.40;;;8.60;99.90;;;;;;4996876;28;20022;-72
2023/04/13 00:57:40;;;;;;;2.13;0.45;;;8.60;99.90;;;;;;4994885;28;20030;-72
2023/04/13 01:00:11;;;;;;;1.02;0.50;;;8.60;99.90;;;;;;4996865;28;20036;-72
2023/04/13 01:02:40;;;;;;;1.33;0.40;;;8.50;99.90;;;;;;4996180;28;20026;-72
2023/04/13 01:05:07;;;;;;;2.38;0.40;;;8.50;99.90;;;;;;4996420;28;20375;-73
2023/04/13 01:07:44;;;;;;;2.95;0.32;;;8.50;99.90;;;;;;4996361;28;20038;-73
2023/04/13 01:10:31;;;;;;;1.92;0.40;;;8.40;99.90;;;;;;4996576;28;20061;-73
2023/04/13 01:13:16;;;;;;;1.02;0.40;;;8.40;99.90;;;;;;4996404;28;20381;-73
2023/04/13 01:16:14;;;;;;;1.33;0.47;;;8.40;99.90;;;;;;4996025;28;20036;-73
2023/04/13 01:18:42;;;;;;;1.20;0.45;;;8.30;99.90;;;;;;4986871;28;20077;-73
2023/04/13 01:21:11;;;;;;;1.23;0.40;;;8.30;99.90;;;;;;4996388;28;20101;-73
2023/04/13 01:23:53;;;;;;;2.03;0.30;;;8.30;99.90;;;;;;4994403;28;20026;-73
2023/04/13 01:26:21;;;;;;;2.20;0.60;;;8.30;99.90;;;;;;4996685;28;20030;-73
2023/04/13 01:28:48;;;;;;;2.28;0.50;;;8.30;99.90;;;;;;4994302;28;20054;-73
2023/04/13 01:31:15;;;;;;;1.42;0.45;;;8.20;99.90;;;;;;4994980;28;20467;-73
2023/04/13 01:33:42;;;;;;;3.35;0.50;;;8.30;99.90;;;;;;4995600;28;20081;-73
2023/04/13 01:36:10;;;;;;;0.45;0.40;;;8.20;99.90;;;;;;4994919;28;20034;-73
2023/04/13 01:38:36;;;;;;;0.90;0.47;;;8.20;99.90;;;;;;4994128;28;20468;-73
2023/04/13 01:41:02;;;;;;;1.95;0.35;;;8.30;99.90;;;;;;4995811;28;20030;-73
2023/04/13 01:43:29;;;;;;;0.98;0.30;;;8.20;99.90;;;;;;4995394;28;20495;-73
2023/04/13 01:46:00;;;;;;;0.90;0.60;;;8.20;99.90;;;;;;4995958;28;20030;-74
2023/04/13 01:48:41;;;;;;;0.68;0.43;;;8.20;99.90;;;;;;4994835;28;20111;-73
2023/04/13 01:51:18;;;;;;;1.00;0.30;;;8.10;99.90;;;;;;4995950;28;20464;-74
2023/04/13 01:54:06;;;;;;;1.00;0.30;;;8.10;99.90;;;;;;4993819;28;20031;-73
2023/04/13 01:56:32;;;;;;;1.13;0.40;;;8.10;99.90;;;;;;4993989;28;20472;-72
2023/04/13 01:58:59;;;;;;;0.57;0.35;;;8.10;99.90;;;;;;4994270;28;20502;-73
2023/04/13 02:01:25;;;;;;;0.90;0.40;;;8.10;99.90;;;;;;4994461;28;20041;-73
2023/04/13 02:03:51;;;;;;;1.35;0.40;;;8.10;99.90;;;;;;4994480;28;20101;-73
2023/04/13 02:06:17;;;;;;;0.82;0.45;;;8.10;99.90;;;;;;4994281;28;20173;-73
2023/04/13 02:08:44;;;;;;;1.60;0.40;;;8.10;99.90;;;;;;4994729;28;20109;-73
2023/04/13 02:11:11;;;;;;;2.33;0.50;;;8.10;99.90;;;;;;4995607;28;20049;-74
2023/04/13 02:13:37;;;;;;;0.60;0.40;;;8.10;99.90;;;;;;4993597;28;20038;-73
2023/04/13 02:16:05;;;;;;;0.82;0.40;;;8.10;99.90;;;;;;4994099;28;20022;-73
2023/04/13 02:18:32;;;;;;;0.60;0.50;;;8.20;99.90;;;;;;4994670;28;20035;-73
2023/04/13 02:21:08;;;;;;;2.50;0.55;;;8.20;99.90;;;;;;4994270;28;20034;-73
2023/04/13 02:23:39;;;;;;;2.20;0.60;;;8.20;99.90;;;;;;4994693;28;20027;-73
2023/04/13 02:26:09;;;;;;;2.42;0.50;;;8.30;99.90;;;;;;4994203;28;20026;-73
2023/04/13 02:28:35;;;;;;;1.15;0.30;;;8.30;99.90;;;;;;4994968;28;20038;-73
2023/04/13 02:31:04;;;;;;;0.98;0.40;;;8.30;99.90;;;;;;4993813;28;20033;-73
2023/04/13 02:33:30;;;;;;;2.03;0.25;;;8.40;99.90;;;;;;4994471;28;20027;-73
2023/04/13 02:36:03;;;;;;;10.52;0.80;;;8.40;99.90;;;;;;5010064;28;20076;-73
2023/04/13 02:38:30;;;;;;;1.67;0.32;;;8.40;99.90;;;;;;4994704;28;20498;-73
2023/04/13 02:40:58;;;;;;;1.75;0.40;;;8.50;99.90;;;;;;4993536;28;20031;-73
2023/04/13 02:43:25;;;;;;;3.05;1.15;;;8.40;99.90;;;;;;4993304;28;20050;-73
2023/04/13 02:45:51;;;;;;;0.88;0.40;;;8.40;99.90;;;;;;4994318;28;20118;-73
2023/04/13 02:48:18;;;;;;;1.48;0.40;;;8.50;99.90;;;;;;4993521;28;20061;-73
2023/04/13 02:50:44;;;;;;;2.80;0.50;;;8.50;99.90;;;;;;4994189;28;20030;-73
2023/04/13 02:53:09;;;;;;;4.10;1.15;;;8.50;99.90;;;;;;4993382;28;20494;-73
2023/04/13 02:55:35;;;;;;;1.50;0.60;;;8.50;99.90;;;;;;4993853;28;20046;-73
2023/04/13 02:58:03;;;;;;;1.17;0.50;;;8.50;99.90;;;;;;4993330;28;20030;-73
2023/04/13 03:00:29;;;;;;;0.98;0.55;;;8.50;99.90;;;;;;4993401;28;20080;-73
2023/04/13 03:02:55;;;;;;;2.15;0.50;;;8.50;99.90;;;;;;4993678;28;20031;-72
2023/04/13 03:05:20;;;;;;;1.75;0.40;;;8.50;99.90;;;;;;4994547;28;20026;-73
2023/04/13 03:07:46;;;;;;;1.55;0.52;;;8.50;99.90;;;;;;4992656;28;20430;-73
2023/04/13 03:10:12;;;;;;;1.27;0.63;;;8.50;99.90;;;;;;4994405;28;20404;-73
2023/04/13 03:12:38;;;;;;;2.33;0.50;;;8.50;99.90;;;;;;4992065;28;20132;-73
2023/04/13 03:15:07;;;;;;;3.78;0.73;;;8.50;99.90;;;;;;4992222;28;20124;-73
2023/04/13 03:17:32;;;;;;;2.25;0.50;;;8.50;99.90;;;;;;4993539;28;20029;-72
2023/04/13 03:19:58;;;;;;;4.32;0.60;;;8.50;99.90;;;;;;4994243;28;20026;-73
2023/04/13 03:22:24;;;;;;;3.88;0.50;;;8.50;99.90;;;;;;4994258;28;20037;-73
2023/04/13 03:24:51;;;;;;;1.58;0.50;;;8.50;99.90;;;;;;4993547;28;20035;-73
2023/04/13 03:27:20;;;;;;;1.42;0.50;;;8.50;99.90;;;;;;4994164;28;20030;-73
2023/04/13 03:29:46;;;;;;;2.28;0.40;;;8.50;99.90;;;;;;4993118;28;20026;-73
2023/04/13 03:32:11;;;;;;;0.95;0.47;;;8.50;99.90;;;;;;4992686;28;20376;-73
2023/04/13 03:34:42;;;;;;;1.30;0.50;;;8.50;99.90;;;;;;4993310;28;20035;-73
2023/04/13 03:37:09;;;;;;;1.45;0.40;;;8.50;99.90;;;;;;4992866;28;20136;-73
2023/04/13 03:39:35;;;;;;;2.08;0.40;;;8.60;99.90;;;;;;4993114;28;20061;-72
2023/04/13 03:42:02;;;;;;;1.27;0.52;;;8.60;99.90;;;;;;4992397;28;20464;-73
2023/04/13 03:44:29;;;;;;;2.88;0.45;;;8.50;99.90;;;;;;4993880;28;20138;-73
2023/04/13 03:46:55;;;;;;;2.00;0.50;;;8.50;99.90;;;;;;4991871;28;20388;-73
2023/04/13 03:49:21;;;;;;;3.47;0.60;;;8.50;99.90;;;;;;4993631;28;20026;-73
2023/04/13 03:51:46;;;;;;;4.45;0.70;;;8.50;99.90;;;;;;4993019;28;20503;-73
2023/04/13 03:54:12;;;;;;;1.70;0.60;;;8.50;99.90;;;;;;4993619;28;20105;-73
2023/04/13 03:56:38;;;;;;;4.38;0.50;;;8.50;99.90;;;;;;4992996;28;20027;-73
2023/04/13 03:59:03;;;;;;;8.02;0.77;;;8.50;99.90;;;;;;4992178;28;20034;-73
2023/04/13 04:01:29;;;;;;;1.48;0.50;;;8.50;99.90;;;;;;4992255;28;20027;-73
2023/04/13 04:03:56;;;;;;;6.25;0.88;;;8.50;99.90;;;;;;4991605;28;20031;-73
2023/04/13 04:06:22;;;;;;;2.85;0.63;;;8.50;99.90;;;;;;4992177;28;20114;-73
2023/04/13 04:08:48;;;;;;;2.53;0.50;;;8.50;99.90;;;;;;4991198;28;20037;-73
2023/04/13 04:11:15;;;;;;;2.90;0.60;;;8.50;99.90;;;;;;4993400;28;20037;-73
2023/04/13 04:13:41;;;;;;;2.58;0.55;;;8.50;99.90;;;;;;4991704;28;20156;-72
2023/04/13 04:16:07;;;;;;;0.80;0.50;;;8.50;99.90;;;;;;4993068;28;20137;-73
2023/04/13 04:18:33;;;;;;;2.88;0.70;;;8.50;99.90;;;;;;4991619;28;20031;-73
2023/04/13 04:21:01;;;;;;;2.70;0.50;;;8.50;99.90;;;;;;4992617;28;20027;-73
2023/04/13 04:23:27;;;;;;;3.72;0.57;;;8.50;99.90;;;;;;4993354;28;20034;-73
2023/04/13 04:25:53;;;;;;;4.00;0.60;;;8.50;99.90;;;;;;4992162;28;20018;-73
2023/04/13 04:28:19;;;;;;;4.13;0.50;;;8.50;99.90;;;;;;4993531;28;20381;-73
2023/04/13 04:30:52;;;;;;;2.45;0.73;;;8.50;99.90;;;;;;4992514;28;20034;-73
2023/04/13 04:33:21;;;;;;;2.70;0.70;;;8.50;99.90;;;;;;4993313;28;20052;-73
2023/04/13 04:35:50;;;;;;;6.07;0.90;;;8.50;99.90;;;;;;4991341;28;20031;-73
2023/04/13 04:38:20;;;;;;;2.47;0.55;;;8.50;99.90;;;;;;4992951;28;20026;-73
2023/04/13 04:40:46;;;;;;;3.75;0.60;;;8.50;99.90;;;;;;4992726;28;20081;-73
2023/04/13 04:43:13;;;;;;;4.45;0.73;;;8.50;99.90;;;;;;4992647;28;20062;-73
2023/04/13 04:45:45;;;;;;;3.33;0.60;;;8.50;99.90;;;;;;4992409;28;20035;-72
2023/04/13 04:48:14;;;;;;;3.50;0.50;;;8.50;99.90;;;;;;4992802;28;20027;-73
2023/04/13 04:50:43;;;;;;;3.35;0.85;;;8.50;99.90;;;;;;4992348;28;20042;-73
2023/04/13 04:53:10;;;;;;;3.00;0.70;;;8.50;99.90;;;;;;4991660;28;20435;-73
2023/04/13 04:55:35;;;;;;;4.15;0.77;;;8.50;99.90;;;;;;4991808;28;20427;-73
2023/04/13 04:58:01;;;;;;;1.45;0.47;;;8.50;99.90;;;;;;4992210;28;20476;-73
2023/04/13 05:00:29;;;;;;;3.50;0.60;;;8.50;99.90;;;;;;4991368;28;20417;-73
2023/04/13 05:02:56;;;;;;;3.80;0.60;;;8.50;99.90;;;;;;4992257;28;20109;-73
2023/04/13 05:05:22;;;;;;;3.33;0.73;;;8.50;99.90;;;;;;4992780;28;20018;-73
2023/04/13 05:07:48;;;;;;;3.55;0.80;;;8.50;99.90;;;;;;4992215;28;20030;-73
2023/04/13 05:10:14;;;;;;;1.40;0.68;;;8.50;99.90;;;;;;4991674;28;20499;-73
2023/04/13 05:12:40;;;;;;;2.10;0.70;;;8.60;99.90;;;;;;4990660;28;20092;-73
2023/04/13 05:15:06;;;;;;;1.58;0.68;;;8.60;99.90;;;;;;4992794;28;20069;-73
2023/04/13 05:17:31;;;;;;;4.28;0.70;;;8.60;99.90;;;;;;4992693;28;20072;-73
2023/04/13 05:19:57;;;;;;;1.67;0.80;;;8.60;99.90;;;;;;4992198;28;20027;-73
2023/04/13 05:22:23;;;;;;;4.93;0.70;;;8.60;99.90;;;;;;4991387;28;20483;-73
2023/04/13 05:24:48;;;;;;;3.08;0.60;;;8.60;99.90;;;;;;4992069;28;20026;-73
2023/04/13 05:27:14;;;;;;;5.10;1.30;;;8.60;99.90;;;;;;4991452;28;20037;-73
2023/04/13 05:29:40;;;;;;;4.10;0.90;;;8.60;99.90;;;;;;4990734;28;20027;-72
2023/04/13 05:32:06;;;;;;;2.60;0.65;;;8.60;99.90;;;;;;4993032;28;20109;-73
2023/04/13 05:34:34;;;;;;;5.60;1.23;;;8.60;99.90;;;;;;4991311;28;20026;-73
2023/04/13 05:37:00;;;;;;;4.82;1.30;;;8.60;99.90;;;;;;4991965;28;20133;-73
2023/04/13 05:39:26;;;;;;;6.93;0.77;;;8.60;99.90;;;;;;4995161;28;20114;-73
2023/04/13 05:41:51;;;;;;;2.75;0.63;;;8.60;99.90;;;;;;4994876;28;20443;-73
2023/04/13 05:44:17;;;;;;;3.85;0.80;;;8.60;99.90;;;;;;4994708;28;20071;-73
2023/04/13 05:46:43;;;;;;;3.17;0.77;;;8.60;99.90;;;;;;4994211;28;20037;-73
2023/04/13 05:49:09;;;;;;;4.88;0.90;;;8.60;99.90;;;;;;4994630;28;20446;-73
2023/04/13 05:51:35;;;;;;;6.80;1.08;;;8.50;99.90;;;;;;4995878;28;20061;-73
2023/04/13 05:54:01;;;;;;;6.20;0.77;;;8.60;99.90;;;;;;4994023;28;20062;-73
2023/04/13 05:56:28;;;;;;;7.25;0.82;;;8.60;99.90;;;;;;4995751;28;20026;-73
2023/04/13 05:58:54;;;;;;;1.85;0.70;;;8.60;99.90;;;;;;4993852;28;20488;-73
2023/04/13 06:01:22;;;;;;;3.28;0.82;;;8.60;99.90;;;;;;4994518;28;20357;-73
2023/04/13 06:03:47;;;;;;;6.07;0.90;;;8.60;99.90;;;;;;4995044;28;20033;-73
2023/04/13 06:06:16;;;;;;;3.03;0.90;;;8.60;99.90;;;;;;4994625;28;20113;-73
2023/04/13 06:08:42;;;;;;;5.68;0.82;;;8.60;99.90;;;;;;4994248;28;20374;-73
2023/04/13 06:11:08;;;;;;;5.03;0.65;;;8.60;99.90;;;;;;4995510;28;20080;-73
2023/04/13 06:13:34;;;;;;;4.25;0.98;;;8.50;99.90;;;;;;4994366;28;20422;-73
2023/04/13 06:16:00;;;;;;;2.45;1.02;;;8.50;99.90;;;;;;4994836;28;20019;-73
2023/04/13 06:18:26;;;;;;;4.03;0.95;;;8.60;99.90;;;;;;4994089;28;20170;-73
2023/04/13 06:20:51;;;;;;;5.90;1.08;;;8.50;99.90;;;;;;4994444;28;20392;-73
2023/04/13 06:23:17;;;;;;;2.20;0.60;;;8.60;99.90;;;;;;4994244;28;20037;-73
2023/04/13 06:25:43;;;;;;;3.70;0.70;;;8.60;99.90;;;;;;4994794;28;20022;-72
2023/04/13 06:28:10;;;;;;;4.47;0.60;;;8.60;99.90;;;;;;4995212;28;20033;-73
2023/04/13 06:30:36;;;;;;;5.93;0.80;;;8.60;99.90;;;;;;4995243;28;20468;-73
2023/04/13 06:33:03;;;;;;;4.60;0.80;;;8.70;99.90;;;;;;4994626;28;20058;-73
2023/04/13 06:35:29;;;;;;;4.30;0.85;;;8.70;99.90;;;;;;4993804;28;20037;-73
2023/04/13 06:37:58;;;;;;;3.88;0.80;;;8.70;99.90;;;;;;4994049;28;20038;-73
2023/04/13 06:40:24;;;;;;;4.93;0.90;;;8.70;99.90;;;;;;4993779;28;20514;-73
2023/04/13 06:42:50;;;;;;;6.20;0.63;;;8.80;99.90;;;;;;4994323;28;20046;-73
2023/04/13 06:45:16;;;;;;;8.57;1.20;;;8.80;99.90;;;;;;4993590;28;20092;-73
2023/04/13 06:47:42;;;;;;;3.40;0.60;;;8.90;99.90;;;;;;4993650;28;20026;-73
2023/04/13 06:50:12;;;;;;;3.58;0.85;;;8.90;99.90;;;;;;4992950;28;20034;-73
2023/04/13 06:52:37;;;;;;;4.95;0.60;;;9.00;99.90;;;;;;4995005;28;20044;-73
2023/04/13 06:55:04;;;;;;;4.28;0.90;;;8.90;99.90;;;;;;4994114;28;20034;-73
2023/04/13 06:57:29;;;;;;;6.47;1.25;;;9.00;99.90;;;;;;4994547;28;20037;-73
2023/04/13 06:59:55;;;;;;;3.97;0.82;;;9.00;99.90;;;;;;4994071;28;20018;-72
2023/04/13 07:02:21;;;;;;;2.75;0.65;;;9.00;99.90;;;;;;4994516;28;20033;-73
2023/04/13 07:04:47;;;;;;;5.82;0.70;;;9.00;99.90;;;;;;4993975;28;20037;-73
2023/04/13 07:07:13;;;;;;;5.43;0.90;;;9.10;99.90;;;;;;4994554;28;20019;-73
2023/04/13 07:09:38;;;;;;;3.63;0.80;;;9.10;99.90;;;;;;4994478;28;20070;-73
2023/04/13 07:12:04;;;;;;;3.35;1.02;;;9.10;99.90;;;;;;4993740;28;20051;-73
2023/04/13 07:14:34;;;;;;;6.28;1.38;;;9.20;99.90;;;;;;4994386;28;20176;-73
2023/04/13 07:17:00;;;;;;;4.95;0.88;;;9.20;99.90;;;;;;4992354;28;20030;-72
2023/04/13 07:19:28;;;;;;;3.15;0.70;;;9.10;99.90;;;;;;4993159;28;20045;-73
2023/04/13 07:21:53;;;;;;;3.85;0.85;;;9.20;99.90;;;;;;4993610;28;20031;-73
2023/04/13 07:24:19;;;;;;;6.30;0.77;;;9.20;99.90;;;;;;4992837;28;20038;-73
2023/04/13 07:26:45;;;;;;;5.05;0.85;;;9.40;99.90;;;;;;4994133;28;20026;-73
2023/04/13 07:29:12;;;;;;;7.47;1.10;;;9.50;99.90;;;;;;4992246;28;20026;-73
2023/04/13 07:31:38;;;;;;;9.60;1.10;;;9.50;99.90;;;;;;4992869;28;20030;-73
2023/04/13 07:34:04;;;;;;;5.63;1.00;;;9.50;99.90;;;;;;4993667;28;20030;-73
2023/04/13 07:36:30;;;;;;;9.35;1.30;;;9.70;99.90;;;;;;4992673;28;20030;-73
2023/04/13 07:38:56;;;;;;;5.80;0.77;;;9.80;99.90;;;;;;4991636;28;20034;-73
2023/04/13 07:41:23;;;;;;;1.67;0.80;;;9.80;99.90;;;;;;4992538;28;20026;-73
2023/04/13 07:43:49;;;;;;;8.20;1.10;;;9.80;99.90;;;;;;4991474;28;20050;-72
2023/04/13 07:46:14;;;;;;;3.58;0.80;;;9.90;99.90;;;;;;4993749;28;20427;-72
2023/04/13 07:48:40;;;;;;;5.07;0.98;;;9.80;99.90;;;;;;4993410;28;20037;-72
2023/04/13 07:51:14;;;;;;;9.02;1.05;;;9.70;99.90;;;;;;4991692;28;20030;-72
2023/04/13 07:53:40;;;;;;;6.43;0.88;;;9.70;99.90;;;;;;4993610;28;20023;-73
2023/04/13 07:56:06;;;;;;;5.93;1.08;;;9.70;99.90;;;;;;4992729;28;20027;-72
2023/04/13 07:58:32;;;;;;;4.90;1.08;;;9.70;99.90;;;;;;4992357;28;20129;-72
2023/04/13 08:00:57;;;;;;;5.68;1.10;;;9.80;99.90;;;;;;4992520;28;20472;-72
2023/04/13 08:03:23;;;;;;;9.48;1.20;;;9.80;99.90;;;;;;4993705;28;20037;-72
2023/04/13 08:05:49;;;;;;;5.15;0.98;;;9.90;99.90;;;;;;4992026;28;20126;-71
2023/04/13 08:08:15;;;;;;;6.60;1.25;;;10.00;99.90;;;;;;4992127;28;20121;-72
2023/04/13 08:10:41;;;;;;;6.32;0.93;;;10.10;99.90;;;;;;4993420;28;20026;-72
2023/04/13 08:13:07;;;;;;;3.25;1.05;;;10.00;99.90;;;;;;4992740;28;20028;-72
2023/04/13 08:15:32;;;;;;;5.13;1.00;;;9.90;99.90;;;;;;4993541;28;20030;-72
2023/04/13 08:17:58;;;;;;;4.88;1.13;;;9.80;99.90;;;;;;4991348;28;20038;-72
2023/04/13 08:20:24;;;;;;;3.97;1.02;;;9.80;99.90;;;;;;4992205;28;20031;-72
2023/04/13 08:22:49;;;;;;;4.57;1.10;;;9.70;99.90;;;;;;4991787;28;20033;-71
2023/04/13 08:25:16;;;;;;;4.32;0.77;;;9.70;99.90;;;;;;4992921;28;20511;-72
2023/04/13 08:27:42;;;;;;;5.85;1.83;;;9.70;99.90;;;;;;4993217;28;20023;-72
2023/04/13 08:30:10;;;;;;;6.10;0.85;;;9.60;99.90;;;;;;4992623;28;20033;-72
2023/04/13 08:32:36;;;;;;;4.85;1.10;;;9.60;99.90;;;;;;4993225;28;20019;-72
2023/04/13 08:35:05;;;;;;;6.40;1.25;;;9.60;99.90;;;;;;4992572;28;20371;-71
2023/04/13 08:37:32;;;;;;;6.63;1.10;;;9.60;99.90;;;;;;4993030;28;20494;-72
2023/04/13 08:39:59;;;;;;;4.93;0.95;;;9.50;99.90;;;;;;4991240;28;20117;-71
2023/04/13 08:42:26;;;;;;;3.30;0.73;;;9.60;99.90;;;;;;4993145;28;20046;-72
2023/04/13 08:44:56;;;;;;;8.60;1.33;;;9.70;99.90;;;;;;4991243;28;20041;-71
2023/04/13 08:47:23;;;;;;;4.45;1.10;;;9.70;99.90;;;;;;4991966;28;20030;-72
2023/04/13 08:49:50;;;;;;;5.70;1.27;;;9.80;99.90;;;;;;4991749;28;20037;-72
2023/04/13 08:52:16;;;;;;;5.78;1.00;;;9.80;99.90;;;;;;4991193;28;20415;-72
2023/04/13 08:54:42;;;;;;;3.42;0.80;;;9.90;99.90;;;;;;4991598;28;20065;-72
2023/04/13 08:57:10;;;;;;;9.05;1.30;;;9.90;99.90;;;;;;4992376;28;20065;-72
2023/04/13 08:59:40;;;;;;;5.18;1.30;;;9.90;99.90;;;;;;4992894;28;20062;-72
2023/04/13 09:02:07;;;;;;;5.47;1.20;;;9.90;99.90;;;;;;4991073;28;20036;-71
2023/04/13 09:04:35;;;;;;;4.40;0.90;;;9.90;99.90;;;;;;4991630;28;20081;-72
2023/04/13 09:07:03;;;;;;;6.97;1.63;;;10.00;99.90;;;;;;4992004;28;20399;-71
2023/04/13 09:09:31;;;;;;;7.00;1.27;;;10.10;99.90;;;;;;4992853;28;20041;-72
2023/04/13 09:11:57;;;;;;;7.18;1.10;;;9.90;99.90;;;;;;4990962;28;20126;-72
2023/04/13 09:14:23;;;;;;;5.82;1.50;;;9.70;99.90;;;;;;4995958;28;20061;-72
2023/04/13 09:16:49;;;;;;;6.00;1.00;;;9.70;99.90;;;;;;4995275;28;20080;-72
2023/04/13 09:19:15;;;;;;;9.68;1.20;;;9.80;99.90;;;;;;4996189;28;20089;-72
2023/04/13 09:21:44;;;;;;;6.88;1.08;;;9.90;99.90;;;;;;4995249;28;20084;-72
2023/04/13 09:24:11;;;;;;;4.85;0.85;;;10.00;99.90;;;;;;4994585;28;20033;-72
2023/04/13 09:26:45;;;;;;;6.10;1.10;;;10.00;99.90;;;;;;4995162;28;20030;-72
2023/04/13 09:29:14;;;;;;;5.57;1.23;;;10.10;99.90;;;;;;4995775;28;20030;-72
2023/04/13 09:31:40;;;;;;;10.02;1.75;;;10.20;99.90;;;;;;4996293;28;20022;-72
2023/04/13 09:34:07;;;;;;;10.23;1.70;;;10.30;99.90;;;;;;4995688;28;20045;-72
2023/04/13 09:36:33;;;;;;;9.98;1.63;;;10.30;99.90;;;;;;4996154;28;20025;-72
2023/04/13 09:38:59;;;;;;;7.35;1.50;;;10.20;99.90;;;;;;4995638;28;20034;-71
2023/04/13 09:41:38;;;;;;;4.25;1.45;;;10.30;99.90;;;;;;4994612;28;20027;-72
2023/04/13 09:44:19;;;;;;;6.30;1.25;;;10.30;99.90;;;;;;4995595;28;20050;-72
2023/04/13 09:47:00;;;;;;;7.80;1.10;;;10.20;99.90;;;;;;4994832;28;20074;-72
2023/04/13 09:49:36;;;;;;;5.77;1.00;;;10.10;99.90;;;;;;4995842;28;20476;-72
2023/04/13 09:52:02;;;;;;;5.45;1.38;;;10.10;99.90;;;;;;4995344;28;20468;-72
2023/04/13 09:54:28;;;;;;;6.45;0.88;;;10.10;99.90;;;;;;4996061;28;20034;-72
2023/04/13 09:56:55;;;;;;;6.93;1.17;;;10.00;99.90;;;;;;4994581;28;20391;-72
2023/04/13 09:59:24;;;;;;;5.30;0.90;;;10.00;99.90;;;;;;4994164;28;20035;-72
2023/04/13 10:01:50;;;;;;;4.97;1.15;;;10.00;99.90;;;;;;4995686;28;20541;-72
2023/04/13 10:04:16;;;;;;;3.35;1.05;;;10.20;99.90;;;;;;4995058;28;20113;-72
2023/04/13 10:06:43;;;;;;;5.55;0.85;;;10.30;99.90;;;;;;4995599;28;20054;-72
2023/04/13 10:09:09;;;;;;;4.15;1.02;;;10.40;99.90;;;;;;4995034;28;20031;-72
2023/04/13 10:11:43;;;;;;;6.05;0.90;;;10.40;99.90;;;;;;4995742;28;20121;-72
2023/04/13 10:14:16;;;;;;;4.85;1.00;;;10.30;99.90;;;;;;4994692;28;20034;-72
2023/04/13 10:16:56;;;;;;;3.35;1.08;;;10.40;99.90;;;;;;4995874;28;20476;-72
2023/04/13 10:19:31;;;;;;;5.78;1.17;;;10.20;99.90;;;;;;4995235;28;20038;-72
2023/04/13 10:21:57;;;;;;;5.53;1.10;;;10.20;99.90;;;;;;4995448;28;20543;-72
2023/04/13 10:24:23;;;;;;;3.50;1.17;;;10.30;99.90;;;;;;4995001;28;20026;-72
2023/04/13 10:26:54;;;;;;;5.55;1.17;;;10.30;99.90;;;;;;4993764;28;20498;-72
2023/04/13 10:29:30;;;;;;;5.93;0.98;;;10.50;99.90;;;;;;4994717;28;20026;-72
2023/04/13 10:32:01;;;;;;;2.60;0.88;;;10.50;99.90;;;;;;4995221;28;20058;-72
2023/04/13 10:34:33;;;;;;;5.07;0.90;;;10.50;99.90;;;;;;4993681;28;20506;-72
2023/04/13 10:37:02;;;;;;;4.47;1.10;;;10.50;99.90;;;;;;4994862;28;20113;-71
2023/04/13 10:39:30;;;;;;;5.63;1.10;;;10.60;99.90;;;;;;4993704;28;20038;-72
2023/04/13 10:42:06;;;;;;;5.95;1.10;;;10.70;99.90;;;;;;4993624;28;20512;-72
2023/04/13 10:44:49;;;;;;;7.47;1.25;;;10.80;99.90;;;;;;4993811;28;20045;-72
2023/04/13 10:47:17;;;;;;;4.60;1.15;;;10.80;99.90;;;;;;4993057;28;20026;-72
2023/04/13 10:49:43;;;;;;;9.18;1.90;;;10.80;99.90;;;;;;4994842;28;20030;-72
2023/04/13 10:52:10;;;;;;;4.80;0.88;;;10.80;99.90;;;;;;4994011;28;20030;-71
2023/04/13 10:54:37;;;;;;;5.40;1.00;;;10.90;99.90;;;;;;4993579;28;20049;-72
2023/04/13 10:57:05;;;;;;;4.45;0.90;;;10.90;99.90;;;;;;4994116;28;20522;-72
2023/04/13 10:59:40;;;;;;;3.83;1.10;;;10.90;99.90;;;;;;4993352;28;20434;-72
2023/04/13 11:02:13;;;;;;;3.83;1.52;;;10.70;99.90;;;;;;4994035;28;20526;-72
2023/04/13 11:04:40;;;;;;;6.07;1.15;;;10.60;99.90;;;;;;4993294;28;20530;-73
2023/04/13 11:07:15;;;;;;;5.40;1.60;;;10.50;99.90;;;;;;4992695;28;20022;-71
2023/04/13 11:09:51;;;;;;;7.95;1.77;;;10.80;99.90;;;;;;4993373;28;20034;-72
2023/04/13 11:12:18;;;;;;;3.90;1.50;;;11.00;99.90;;;;;;4993604;28;20026;-72
2023/04/13 11:14:48;;;;;;;5.63;0.90;;;11.10;99.90;;;;;;4993110;28;20049;-72
2023/04/13 11:17:16;;;;;;;3.90;1.20;;;11.10;99.90;;;;;;4992033;28;20024;-72
2023/04/13 11:19:52;;;;;;;4.40;1.10;;;11.00;99.90;;;;;;4993903;28;20387;-72
2023/04/13 11:22:24;;;;;;;6.85;1.10;;;10.90;99.90;;;;;;4992506;28;20042;-72
2023/04/13 11:24:50;;;;;;;3.28;1.13;;;10.90;99.90;;;;;;4993121;28;20022;-72
2023/04/13 11:27:25;;;;;;;3.78;0.95;;;10.90;99.90;;;;;;4993520;28;20030;-72
2023/04/13 11:30:04;;;;;;;1.85;0.60;;;10.90;99.90;;;;;;4994184;28;20391;-72
2023/04/13 11:32:34;;;;;;;4.97;0.90;;;10.80;99.90;;;;;;4993039;28;20375;-72
2023/04/13 11:35:08;;;;;;;4.47;1.00;;;11.00;99.90;;;;;;4993526;28;20148;-72
2023/04/13 11:37:42;;;;;;;2.95;0.90;;;11.00;99.90;;;;;;4993859;28;20368;-72
2023/04/13 11:40:13;;;;;;;4.57;0.90;;;11.00;99.90;;;;;;4992150;28;20034;-72
2023/04/13 11:42:41;;;;;;;3.72;0.90;;;11.00;99.90;;;;;;4992466;28;20061;-72
2023/04/13 11:45:08;;;;;;;5.30;1.52;;;11.40;99.90;;;;;;4991852;28;20026;-72
2023/04/13 11:47:34;;;;;;;3.72;1.17;;;11.60;99.90;;;;;;4993798;28;20156;-72
2023/04/13 11:50:01;;;;;;;4.38;0.93;;;11.70;99.90;;;;;;4992490;28;20031;-72
2023/04/13 11:52:27;;;;;;;5.97;1.17;;;11.50;99.90;;;;;;4993732;28;20067;-72
2023/04/13 11:54:54;;;;;;;5.30;0.88;;;11.60;99.90;;;;;;4992439;28;20030;-72
2023/04/13 11:57:19;;;;;;;7.10;1.42;;;11.60;99.90;;;;;;4991704;28;20053;-72
2023/04/13 11:59:46;;;;;;;4.75;1.30;;;11.70;99.90;;;;;;4992258;28;20472;-72
2023/04/13 12:02:13;;;;;;;3.90;1.10;;;11.90;99.90;;;;;;4992955;28;20018;-72
2023/04/13 12:04:44;;;;;;;3.72;0.95;;;12.20;99.90;;;;;;4992418;28;20029;-72
2023/04/13 12:07:12;;;;;;;7.07;1.02;;;12.40;99.90;;;;;;4992970;28;20029;-72
2023/04/13 12:09:48;;;;;;;4.05;0.70;;;12.20;99.90;;;;;;4992193;28;20511;-72
2023/04/13 12:12:23;;;;;;;7.13;1.00;;;12.30;99.90;;;;;;4991293;28;20497;-72
2023/04/13 12:14:56;;;;;;;4.10;1.15;;;12.30;99.90;;;;;;4993516;28;20037;-72
2023/04/13 12:17:30;;;;;;;7.32;1.05;;;12.30;99.90;;;;;;4992757;28;20129;-72
2023/04/13 12:19:56;;;;;;;4.25;1.05;;;12.10;99.90;;;;;;4992072;28;20030;-72
2023/04/13 12:22:22;;;;;;;5.95;0.80;;;11.90;99.90;;;;;;4992730;28;20026;-72
2023/04/13 12:24:47;;;;;;;4.32;1.00;;;11.80;99.90;;;;;;4993202;28;20430;-72
2023/04/13 12:27:13;;;;;;;6.85;1.52;;;11.80;99.90;;;;;;4991339;28;20439;-72
2023/04/13 12:29:39;;;;;;;4.00;0.80;;;12.00;99.90;;;;;;4993232;28;20042;-72
2023/04/13 12:32:12;;;;;;;3.75;1.30;;;12.30;99.90;;;;;;4992568;28;20142;-71
2023/04/13 12:34:42;;;;;;;4.15;1.40;;;12.70;99.90;;;;;;4992136;28;20030;-72
2023/04/13 12:37:08;;;;;;;4.10;1.30;;;13.00;99.90;;;;;;4991257;28;20022;-72
2023/04/13 12:39:33;;;;;;;4.90;1.35;;;13.10;99.90;;;;;;4993125;28;20084;-72
2023/04/13 12:42:00;;;;;;;6.63;1.23;;;13.20;99.90;;;;;;4992926;28;20113;-72
2023/04/13 12:44:25;;;;;;;3.08;1.00;;;13.30;99.90;;;;;;4991310;28;20042;-72
2023/04/13 12:46:51;;;;;;;6.07;1.23;;;13.40;99.90;;;;;;4992611;28;20435;-72
2023/04/13 12:49:17;;;;;;;7.95;1.38;;;13.60;99.90;;;;;;4995354;28;20061;-72
2023/04/13 12:51:42;;;;;;;4.55;1.33;;;13.50;99.90;;;;;;4997112;28;20357;-72
2023/04/13 12:54:12;;;;;;;5.97;1.00;;;13.40;99.90;;;;;;4995151;28;20034;-72
2023/04/13 12:56:41;;;;;;;5.97;0.95;;;13.20;99.90;;;;;;4996920;28;20371;-72